sensor_id;sensor_type;location;lat;lon;timestamp;P1;durP1;ratioP1;P2;durP2;ratioP2
64132;SDS011;53116;52.020;4.446;2022-08-20T00:00:26;2.55;;;1.30;;
64132;SDS011;53116;52.020;4.446;2022-08-20T00:02:55;3.15;;;1.30;;
64132;SDS011;53116;52.020;4.446;2022-08-20T00:05:27;1.88;;;1.30;;
64132;SDS011;53116;52.020;4.446;2022-08-20T00:07:57;2.25;;;1.40;;
64132;SDS011;53116;52.020;4.446;2022-08-20T00:10:25;2.80;;;1.25;;
64132;SDS011;53116;52.020;4.446;2022-08-20T00:12:51;4.35;;;1.35;;
64132;SDS011;53116;52.020;4.446;2022-08-20T00:15:18;2.25;;;1.30;;
64132;SDS011;53116;52.020;4.446;2022-08-20T00:17:49;2.20;;;1.50;;
64132;SDS011;53116;52.020;4.446;2022-08-20T00:20:16;2.67;;;1.45;;
64132;SDS011;53116;52.020;4.446;2022-08-20T00:22:45;2.47;;;1.27;;
64132;SDS011;53116;52.020;4.446;2022-08-20T00:25:11;2.05;;;1.27;;
64132;SDS011;53116;52.020;4.446;2022-08-20T00:27:37;2.75;;;1.30;;
64132;SDS011;53116;52.020;4.446;2022-08-20T00:30:06;2.10;;;1.20;;
64132;SDS011;53116;52.020;4.446;2022-08-20T00:32:40;2.10;;;1.30;;
64132;SDS011;53116;52.020;4.446;2022-08-20T00:35:10;2.85;;;1.23;;
64132;SDS011;53116;52.020;4.446;2022-08-20T00:37:38;2.47;;;1.35;;
64132;SDS011;53116;52.020;4.446;2022-08-20T00:40:04;2.45;;;1.35;;
64132;SDS011;53116;52.020;4.446;2022-08-20T00:42:38;3.08;;;1.23;;
64132;SDS011;53116;52.020;4.446;2022-08-20T00:45:08;3.05;;;1.50;;
64132;SDS011;53116;52.020;4.446;2022-08-20T00:47:34;3.63;;;1.38;;
64132;SDS011;53116;52.020;4.446;2022-08-20T00:50:01;1.90;;;1.13;;
64132;SDS011;53116;52.020;4.446;2022-08-20T00:52:30;2.40;;;1.38;;
64132;SDS011;53116;52.020;4.446;2022-08-20T00:54:57;2.28;;;1.23;;
64132;SDS011;53116;52.020;4.446;2022-08-20T00:57:29;2.75;;;1.60;;
64132;SDS011;53116;52.020;4.446;2022-08-20T00:59:58;2.35;;;1.42;;
64132;SDS011;53116;52.020;4.446;2022-08-20T01:02:26;3.08;;;1.33;;
64132;SDS011;53116;52.020;4.446;2022-08-20T01:04:55;2.67;;;1.30;;
64132;SDS011;53116;52.020;4.446;2022-08-20T01:07:21;1.63;;;1.30;;
64132;SDS011;53116;52.020;4.446;2022-08-20T01:09:56;1.83;;;1.30;;
64132;SDS011;53116;52.020;4.446;2022-08-20T01:12:21;2.72;;;1.35;;
64132;SDS011;53116;52.020;4.446;2022-08-20T01:14:47;2.92;;;1.30;;
64132;SDS011;53116;52.020;4.446;2022-08-20T01:17:15;2.45;;;1.30;;
64132;SDS011;53116;52.020;4.446;2022-08-20T01:19:48;3.20;;;1.70;;
64132;SDS011;53116;52.020;4.446;2022-08-20T01:22:34;2.63;;;1.42;;
64132;SDS011;53116;52.020;4.446;2022-08-20T01:25:29;4.07;;;1.45;;
64132;SDS011;53116;52.020;4.446;2022-08-20T01:28:04;2.15;;;1.45;;
64132;SDS011;53116;52.020;4.446;2022-08-20T01:30:30;2.72;;;1.40;;
64132;SDS011;53116;52.020;4.446;2022-08-20T01:32:56;4.25;;;1.38;;
64132;SDS011;53116;52.020;4.446;2022-08-20T01:35:22;2.88;;;1.38;;
64132;SDS011;53116;52.020;4.446;2022-08-20T01:37:48;2.13;;;1.42;;
64132;SDS011;53116;52.020;4.446;2022-08-20T01:40:13;4.00;;;1.40;;
64132;SDS011;53116;52.020;4.446;2022-08-20T01:42:45;2.90;;;1.73;;
64132;SDS011;53116;52.020;4.446;2022-08-20T01:45:13;4.13;;;1.52;;
64132;SDS011;53116;52.020;4.446;2022-08-20T01:47:38;2.88;;;1.50;;
64132;SDS011;53116;52.020;4.446;2022-08-20T01:50:09;2.78;;;1.40;;
64132;SDS011;53116;52.020;4.446;2022-08-20T01:52:44;5.25;;;1.33;;
64132;SDS011;53116;52.020;4.446;2022-08-20T01:55:12;2.20;;;1.20;;
64132;SDS011;53116;52.020;4.446;2022-08-20T01:57:38;6.25;;;1.52;;
64132;SDS011;53116;52.020;4.446;2022-08-20T02:00:05;2.75;;;1.35;;
64132;SDS011;53116;52.020;4.446;2022-08-20T02:02:34;2.25;;;1.30;;
64132;SDS011;53116;52.020;4.446;2022-08-20T02:04:59;4.20;;;1.42;;
64132;SDS011;53116;52.020;4.446;2022-08-20T02:07:24;2.83;;;1.40;;
64132;SDS011;53116;52.020;4.446;2022-08-20T02:09:50;2.50;;;1.40;;
64132;SDS011;53116;52.020;4.446;2022-08-20T02:12:16;2.70;;;1.60;;
64132;SDS011;53116;52.020;4.446;2022-08-20T02:14:42;3.40;;;1.48;;
64132;SDS011;53116;52.020;4.446;2022-08-20T02:17:09;2.58;;;1.33;;
64132;SDS011;53116;52.020;4.446;2022-08-20T02:19:40;2.63;;;1.30;;
64132;SDS011;53116;52.020;4.446;2022-08-20T02:22:16;2.95;;;1.48;;
64132;SDS011;53116;52.020;4.446;2022-08-20T02:24:48;1.63;;;1.30;;
64132;SDS011;53116;52.020;4.446;2022-08-20T02:27:13;2.67;;;1.52;;
64132;SDS011;53116;52.020;4.446;2022-08-20T02:29:40;2.63;;;1.60;;
64132;SDS011;53116;52.020;4.446;2022-08-20T02:32:05;2.60;;;1.67;;
64132;SDS011;53116;52.020;4.446;2022-08-20T02:34:32;2.33;;;1.50;;
64132;SDS011;53116;52.020;4.446;2022-08-20T02:37:01;2.45;;;1.50;;
64132;SDS011;53116;52.020;4.446;2022-08-20T02:39:27;2.42;;;1.40;;
64132;SDS011;53116;52.020;4.446;2022-08-20T02:41:53;2.97;;;1.63;;
64132;SDS011;53116;52.020;4.446;2022-08-20T02:44:18;2.50;;;1.50;;
64132;SDS011;53116;52.020;4.446;2022-08-20T02:46:45;3.33;;;1.52;;
64132;SDS011;53116;52.020;4.446;2022-08-20T02:49:14;2.08;;;1.38;;
64132;SDS011;53116;52.020;4.446;2022-08-20T02:51:41;2.25;;;1.30;;
64132;SDS011;53116;52.020;4.446;2022-08-20T02:54:06;2.55;;;1.48;;
64132;SDS011;53116;52.020;4.446;2022-08-20T02:56:31;2.13;;;1.35;;
64132;SDS011;53116;52.020;4.446;2022-08-20T02:58:57;2.92;;;1.60;;
64132;SDS011;53116;52.020;4.446;2022-08-20T03:01:22;1.77;;;1.25;;
64132;SDS011;53116;52.020;4.446;2022-08-20T03:03:47;2.60;;;1.48;;
64132;SDS011;53116;52.020;4.446;2022-08-20T03:06:13;2.35;;;1.40;;
64132;SDS011;53116;52.020;4.446;2022-08-20T03:08:39;4.18;;;1.50;;
64132;SDS011;53116;52.020;4.446;2022-08-20T03:11:05;1.92;;;1.30;;
64132;SDS011;53116;52.020;4.446;2022-08-20T03:13:31;2.28;;;1.33;;
64132;SDS011;53116;52.020;4.446;2022-08-20T03:15:57;2.60;;;1.50;;
64132;SDS011;53116;52.020;4.446;2022-08-20T03:18:26;2.75;;;1.38;;
64132;SDS011;53116;52.020;4.446;2022-08-20T03:20:55;1.95;;;1.40;;
64132;SDS011;53116;52.020;4.446;2022-08-20T03:23:20;1.90;;;1.40;;
64132;SDS011;53116;52.020;4.446;2022-08-20T03:25:46;2.50;;;1.50;;
64132;SDS011;53116;52.020;4.446;2022-08-20T03:28:12;2.25;;;1.35;;
64132;SDS011;53116;52.020;4.446;2022-08-20T03:30:38;3.83;;;1.40;;
64132;SDS011;53116;52.020;4.446;2022-08-20T03:33:04;3.47;;;1.50;;
64132;SDS011;53116;52.020;4.446;2022-08-20T03:35:31;4.90;;;1.30;;
64132;SDS011;53116;52.020;4.446;2022-08-20T03:37:57;5.00;;;2.38;;
64132;SDS011;53116;52.020;4.446;2022-08-20T03:40:25;5.45;;;2.30;;
64132;SDS011;53116;52.020;4.446;2022-08-20T03:42:55;5.55;;;2.63;;
64132;SDS011;53116;52.020;4.446;2022-08-20T03:45:21;6.75;;;3.00;;
64132;SDS011;53116;52.020;4.446;2022-08-20T03:47:47;6.35;;;2.90;;
64132;SDS011;53116;52.020;4.446;2022-08-20T03:50:13;6.80;;;2.40;;
64132;SDS011;53116;52.020;4.446;2022-08-20T03:52:39;7.07;;;2.75;;
64132;SDS011;53116;52.020;4.446;2022-08-20T03:55:06;8.55;;;2.80;;
64132;SDS011;53116;52.020;4.446;2022-08-20T03:57:33;4.70;;;2.45;;
64132;SDS011;53116;52.020;4.446;2022-08-20T03:59:59;6.07;;;2.40;;
64132;SDS011;53116;52.020;4.446;2022-08-20T04:02:26;5.90;;;2.75;;
64132;SDS011;53116;52.020;4.446;2022-08-20T04:04:52;6.85;;;2.97;;
64132;SDS011;53116;52.020;4.446;2022-08-20T04:07:20;9.75;;;2.70;;
64132;SDS011;53116;52.020;4.446;2022-08-20T04:09:49;7.40;;;2.75;;
64132;SDS011;53116;52.020;4.446;2022-08-20T04:12:16;6.30;;;2.85;;
64132;SDS011;53116;52.020;4.446;2022-08-20T04:14:42;6.20;;;2.85;;
64132;SDS011;53116;52.020;4.446;2022-08-20T04:17:08;8.57;;;2.85;;
64132;SDS011;53116;52.020;4.446;2022-08-20T04:19:36;6.40;;;2.92;;
64132;SDS011;53116;52.020;4.446;2022-08-20T04:22:02;5.95;;;2.65;;
64132;SDS011;53116;52.020;4.446;2022-08-20T04:24:29;5.38;;;2.92;;
64132;SDS011;53116;52.020;4.446;2022-08-20T04:26:55;5.22;;;2.97;;
64132;SDS011;53116;52.020;4.446;2022-08-20T04:29:20;6.13;;;3.22;;
64132;SDS011;53116;52.020;4.446;2022-08-20T04:31:46;6.13;;;3.00;;
64132;SDS011;53116;52.020;4.446;2022-08-20T04:34:12;5.82;;;2.78;;
64132;SDS011;53116;52.020;4.446;2022-08-20T04:36:37;5.45;;;2.90;;
64132;SDS011;53116;52.020;4.446;2022-08-20T04:39:04;6.00;;;3.15;;
64132;SDS011;53116;52.020;4.446;2022-08-20T04:41:30;4.75;;;2.83;;
64132;SDS011;53116;52.020;4.446;2022-08-20T04:43:56;6.80;;;3.35;;
64132;SDS011;53116;52.020;4.446;2022-08-20T04:46:23;6.38;;;2.95;;
64132;SDS011;53116;52.020;4.446;2022-08-20T04:48:52;7.78;;;3.28;;
64132;SDS011;53116;52.020;4.446;2022-08-20T04:51:18;6.07;;;2.80;;
64132;SDS011;53116;52.020;4.446;2022-08-20T04:53:44;5.50;;;3.28;;
64132;SDS011;53116;52.020;4.446;2022-08-20T04:56:10;7.45;;;3.05;;
64132;SDS011;53116;52.020;4.446;2022-08-20T04:58:37;3.53;;;2.33;;
64132;SDS011;53116;52.020;4.446;2022-08-20T05:01:07;4.53;;;2.20;;
64132;SDS011;53116;52.020;4.446;2022-08-20T05:03:35;6.85;;;2.30;;
64132;SDS011;53116;52.020;4.446;2022-08-20T05:06:02;5.22;;;2.40;;
64132;SDS011;53116;52.020;4.446;2022-08-20T05:08:30;3.67;;;2.17;;
64132;SDS011;53116;52.020;4.446;2022-08-20T05:10:56;5.55;;;2.38;;
64132;SDS011;53116;52.020;4.446;2022-08-20T05:13:22;3.78;;;2.33;;
64132;SDS011;53116;52.020;4.446;2022-08-20T05:15:48;8.10;;;2.88;;
64132;SDS011;53116;52.020;4.446;2022-08-20T05:18:15;12.68;;;2.83;;
64132;SDS011;53116;52.020;4.446;2022-08-20T05:20:43;5.80;;;3.03;;
64132;SDS011;53116;52.020;4.446;2022-08-20T05:23:10;4.35;;;2.60;;
64132;SDS011;53116;52.020;4.446;2022-08-20T05:25:40;9.07;;;2.90;;
64132;SDS011;53116;52.020;4.446;2022-08-20T05:28:08;6.20;;;3.03;;
64132;SDS011;53116;52.020;4.446;2022-08-20T05:30:38;7.72;;;2.80;;
64132;SDS011;53116;52.020;4.446;2022-08-20T05:33:06;4.65;;;3.03;;
64132;SDS011;53116;52.020;4.446;2022-08-20T05:35:34;6.07;;;3.00;;
64132;SDS011;53116;52.020;4.446;2022-08-20T05:38:02;9.88;;;3.10;;
64132;SDS011;53116;52.020;4.446;2022-08-20T05:40:32;6.85;;;2.88;;
64132;SDS011;53116;52.020;4.446;2022-08-20T05:42:58;8.45;;;3.08;;
64132;SDS011;53116;52.020;4.446;2022-08-20T05:45:23;6.72;;;2.90;;
64132;SDS011;53116;52.020;4.446;2022-08-20T05:47:48;7.17;;;3.00;;
64132;SDS011;53116;52.020;4.446;2022-08-20T05:50:14;7.28;;;3.10;;
64132;SDS011;53116;52.020;4.446;2022-08-20T05:52:41;6.40;;;3.33;;
64132;SDS011;53116;52.020;4.446;2022-08-20T05:55:08;6.53;;;2.95;;
64132;SDS011;53116;52.020;4.446;2022-08-20T05:57:34;6.03;;;3.10;;
64132;SDS011;53116;52.020;4.446;2022-08-20T06:00:00;5.95;;;2.88;;
64132;SDS011;53116;52.020;4.446;2022-08-20T06:02:28;6.13;;;3.00;;
64132;SDS011;53116;52.020;4.446;2022-08-20T06:05:12;5.43;;;2.80;;
64132;SDS011;53116;52.020;4.446;2022-08-20T06:07:38;6.70;;;2.93;;
64132;SDS011;53116;52.020;4.446;2022-08-20T06:10:04;7.05;;;2.70;;
64132;SDS011;53116;52.020;4.446;2022-08-20T06:12:31;6.03;;;2.80;;
64132;SDS011;53116;52.020;4.446;2022-08-20T06:14:56;4.78;;;2.60;;
64132;SDS011;53116;52.020;4.446;2022-08-20T06:17:23;5.00;;;2.78;;
64132;SDS011;53116;52.020;4.446;2022-08-20T06:19:48;7.15;;;2.95;;
64132;SDS011;53116;52.020;4.446;2022-08-20T06:22:14;7.75;;;2.88;;
64132;SDS011;53116;52.020;4.446;2022-08-20T06:24:40;5.43;;;2.80;;
64132;SDS011;53116;52.020;4.446;2022-08-20T06:27:06;6.43;;;2.90;;
64132;SDS011;53116;52.020;4.446;2022-08-20T06:29:31;6.07;;;2.33;;
64132;SDS011;53116;52.020;4.446;2022-08-20T06:31:57;6.78;;;2.70;;
64132;SDS011;53116;52.020;4.446;2022-08-20T06:34:25;5.72;;;2.58;;
64132;SDS011;53116;52.020;4.446;2022-08-20T06:36:52;5.78;;;2.65;;
64132;SDS011;53116;52.020;4.446;2022-08-20T06:39:18;6.78;;;2.80;;
64132;SDS011;53116;52.020;4.446;2022-08-20T06:41:43;11.32;;;3.08;;
64132;SDS011;53116;52.020;4.446;2022-08-20T06:44:09;7.17;;;2.53;;
64132;SDS011;53116;52.020;4.446;2022-08-20T06:46:34;6.57;;;2.50;;
64132;SDS011;53116;52.020;4.446;2022-08-20T06:49:00;5.47;;;2.38;;
64132;SDS011;53116;52.020;4.446;2022-08-20T06:51:27;6.55;;;2.67;;
64132;SDS011;53116;52.020;4.446;2022-08-20T06:53:53;6.32;;;2.13;;
64132;SDS011;53116;52.020;4.446;2022-08-20T06:56:19;8.40;;;3.15;;
64132;SDS011;53116;52.020;4.446;2022-08-20T06:58:44;8.27;;;2.38;;
64132;SDS011;53116;52.020;4.446;2022-08-20T07:01:10;6.27;;;2.80;;
64132;SDS011;53116;52.020;4.446;2022-08-20T07:03:39;7.45;;;2.67;;
64132;SDS011;53116;52.020;4.446;2022-08-20T07:06:06;8.40;;;2.65;;
64132;SDS011;53116;52.020;4.446;2022-08-20T07:08:32;7.43;;;2.35;;
64132;SDS011;53116;52.020;4.446;2022-08-20T07:10:57;7.50;;;2.78;;
64132;SDS011;53116;52.020;4.446;2022-08-20T07:13:23;8.20;;;2.38;;
64132;SDS011;53116;52.020;4.446;2022-08-20T07:15:49;8.25;;;2.35;;
64132;SDS011;53116;52.020;4.446;2022-08-20T07:18:14;6.43;;;2.38;;
64132;SDS011;53116;52.020;4.446;2022-08-20T07:20:40;7.53;;;2.23;;
64132;SDS011;53116;52.020;4.446;2022-08-20T07:23:06;6.25;;;2.33;;
64132;SDS011;53116;52.020;4.446;2022-08-20T07:25:33;14.93;;;2.30;;
64132;SDS011;53116;52.020;4.446;2022-08-20T07:28:06;6.80;;;2.60;;
64132;SDS011;53116;52.020;4.446;2022-08-20T07:30:35;7.75;;;2.08;;
64132;SDS011;53116;52.020;4.446;2022-08-20T07:33:19;8.38;;;2.50;;
64132;SDS011;53116;52.020;4.446;2022-08-20T07:35:45;8.43;;;2.25;;
64132;SDS011;53116;52.020;4.446;2022-08-20T07:38:13;13.20;;;2.38;;
64132;SDS011;53116;52.020;4.446;2022-08-20T07:40:43;7.07;;;2.22;;
64132;SDS011;53116;52.020;4.446;2022-08-20T07:43:08;7.57;;;2.20;;
64132;SDS011;53116;52.020;4.446;2022-08-20T07:45:34;7.75;;;2.90;;
64132;SDS011;53116;52.020;4.446;2022-08-20T07:48:07;8.32;;;2.35;;
64132;SDS011;53116;52.020;4.446;2022-08-20T07:50:33;7.10;;;2.08;;
64132;SDS011;53116;52.020;4.446;2022-08-20T07:52:59;6.13;;;2.17;;
64132;SDS011;53116;52.020;4.446;2022-08-20T07:55:25;8.48;;;2.10;;
64132;SDS011;53116;52.020;4.446;2022-08-20T07:57:51;12.70;;;2.55;;
64132;SDS011;53116;52.020;4.446;2022-08-20T08:00:17;7.28;;;2.50;;
64132;SDS011;53116;52.020;4.446;2022-08-20T08:02:46;9.23;;;2.25;;
64132;SDS011;53116;52.020;4.446;2022-08-20T08:05:12;9.52;;;2.30;;
64132;SDS011;53116;52.020;4.446;2022-08-20T08:07:38;4.68;;;1.95;;
64132;SDS011;53116;52.020;4.446;2022-08-20T08:10:04;10.32;;;2.90;;
64132;SDS011;53116;52.020;4.446;2022-08-20T08:12:32;11.18;;;2.50;;
64132;SDS011;53116;52.020;4.446;2022-08-20T08:15:02;9.30;;;2.35;;
64132;SDS011;53116;52.020;4.446;2022-08-20T08:17:29;6.68;;;2.20;;
64132;SDS011;53116;52.020;4.446;2022-08-20T08:19:55;9.07;;;2.55;;
64132;SDS011;53116;52.020;4.446;2022-08-20T08:22:21;8.43;;;1.95;;
64132;SDS011;53116;52.020;4.446;2022-08-20T08:24:47;9.82;;;2.55;;
64132;SDS011;53116;52.020;4.446;2022-08-20T08:27:13;7.45;;;2.15;;
64132;SDS011;53116;52.020;4.446;2022-08-20T08:29:42;8.85;;;2.13;;
64132;SDS011;53116;52.020;4.446;2022-08-20T08:32:08;9.80;;;2.33;;
64132;SDS011;53116;52.020;4.446;2022-08-20T08:34:34;11.02;;;2.53;;
64132;SDS011;53116;52.020;4.446;2022-08-20T08:37:01;5.28;;;1.95;;
64132;SDS011;53116;52.020;4.446;2022-08-20T08:39:27;8.75;;;1.90;;
64132;SDS011;53116;52.020;4.446;2022-08-20T08:41:54;8.90;;;2.15;;
64132;SDS011;53116;52.020;4.446;2022-08-20T08:44:32;15.82;;;2.88;;
64132;SDS011;53116;52.020;4.446;2022-08-20T08:47:06;7.07;;;1.92;;
64132;SDS011;53116;52.020;4.446;2022-08-20T08:49:42;8.15;;;2.40;;
64132;SDS011;53116;52.020;4.446;2022-08-20T08:52:28;8.85;;;2.53;;
64132;SDS011;53116;52.020;4.446;2022-08-20T08:54:57;9.98;;;2.53;;
64132;SDS011;53116;52.020;4.446;2022-08-20T08:57:25;9.38;;;2.58;;
64132;SDS011;53116;52.020;4.446;2022-08-20T08:59:55;8.75;;;2.40;;
64132;SDS011;53116;52.020;4.446;2022-08-20T09:02:24;10.45;;;2.10;;
64132;SDS011;53116;52.020;4.446;2022-08-20T09:04:51;7.88;;;2.17;;
64132;SDS011;53116;52.020;4.446;2022-08-20T09:07:20;7.28;;;2.10;;
64132;SDS011;53116;52.020;4.446;2022-08-20T09:09:48;9.20;;;2.55;;
64132;SDS011;53116;52.020;4.446;2022-08-20T09:12:16;12.68;;;2.53;;
64132;SDS011;53116;52.020;4.446;2022-08-20T09:14:44;8.63;;;2.03;;
64132;SDS011;53116;52.020;4.446;2022-08-20T09:17:11;17.27;;;3.15;;
64132;SDS011;53116;52.020;4.446;2022-08-20T09:19:37;10.60;;;2.53;;
64132;SDS011;53116;52.020;4.446;2022-08-20T09:22:06;10.53;;;2.50;;
64132;SDS011;53116;52.020;4.446;2022-08-20T09:24:36;13.07;;;2.50;;
64132;SDS011;53116;52.020;4.446;2022-08-20T09:27:02;9.02;;;2.38;;
64132;SDS011;53116;52.020;4.446;2022-08-20T09:29:27;10.15;;;2.63;;
64132;SDS011;53116;52.020;4.446;2022-08-20T09:34:52;10.57;;;2.85;;
64132;SDS011;53116;52.020;4.446;2022-08-20T09:37:23;9.57;;;2.10;;
64132;SDS011;53116;52.020;4.446;2022-08-20T09:39:52;7.43;;;2.10;;
64132;SDS011;53116;52.020;4.446;2022-08-20T09:42:28;10.13;;;2.13;;
64132;SDS011;53116;52.020;4.446;2022-08-20T09:44:55;8.70;;;2.53;;
64132;SDS011;53116;52.020;4.446;2022-08-20T09:47:22;7.93;;;2.20;;
64132;SDS011;53116;52.020;4.446;2022-08-20T09:49:47;6.55;;;2.17;;
64132;SDS011;53116;52.020;4.446;2022-08-20T09:52:19;9.20;;;2.30;;
64132;SDS011;53116;52.020;4.446;2022-08-20T09:54:59;10.10;;;3.33;;
64132;SDS011;53116;52.020;4.446;2022-08-20T09:57:26;7.22;;;2.00;;
64132;SDS011;53116;52.020;4.446;2022-08-20T09:59:55;9.45;;;2.13;;
64132;SDS011;53116;52.020;4.446;2022-08-20T10:02:23;6.45;;;2.35;;
64132;SDS011;53116;52.020;4.446;2022-08-20T10:04:49;5.03;;;1.88;;
64132;SDS011;53116;52.020;4.446;2022-08-20T10:07:14;9.18;;;2.90;;
64132;SDS011;53116;52.020;4.446;2022-08-20T10:09:40;6.77;;;2.00;;
64132;SDS011;53116;52.020;4.446;2022-08-20T10:12:05;7.75;;;2.20;;
64132;SDS011;53116;52.020;4.446;2022-08-20T10:14:31;11.77;;;2.20;;
64132;SDS011;53116;52.020;4.446;2022-08-20T10:16:56;7.65;;;2.22;;
64132;SDS011;53116;52.020;4.446;2022-08-20T10:19:23;9.02;;;2.10;;
64132;SDS011;53116;52.020;4.446;2022-08-20T10:21:49;8.55;;;2.25;;
64132;SDS011;53116;52.020;4.446;2022-08-20T10:24:16;8.18;;;2.33;;
64132;SDS011;53116;52.020;4.446;2022-08-20T10:26:42;7.38;;;1.77;;
64132;SDS011;53116;52.020;4.446;2022-08-20T10:29:07;9.27;;;1.92;;
64132;SDS011;53116;52.020;4.446;2022-08-20T10:31:33;9.67;;;2.50;;
64132;SDS011;53116;52.020;4.446;2022-08-20T10:33:58;7.10;;;1.92;;
64132;SDS011;53116;52.020;4.446;2022-08-20T10:36:23;6.63;;;2.00;;
64132;SDS011;53116;52.020;4.446;2022-08-20T10:38:49;7.17;;;2.30;;
64132;SDS011;53116;52.020;4.446;2022-08-20T10:41:14;6.03;;;1.90;;
64132;SDS011;53116;52.020;4.446;2022-08-20T10:43:39;7.85;;;2.38;;
64132;SDS011;53116;52.020;4.446;2022-08-20T10:46:05;9.10;;;1.88;;
64132;SDS011;53116;52.020;4.446;2022-08-20T10:48:30;7.28;;;2.20;;
64132;SDS011;53116;52.020;4.446;2022-08-20T10:50:56;6.13;;;2.00;;
64132;SDS011;53116;52.020;4.446;2022-08-20T10:53:21;9.15;;;2.33;;
64132;SDS011;53116;52.020;4.446;2022-08-20T10:55:47;5.63;;;2.13;;
64132;SDS011;53116;52.020;4.446;2022-08-20T10:58:12;5.63;;;2.17;;
64132;SDS011;53116;52.020;4.446;2022-08-20T11:00:38;8.80;;;2.40;;
64132;SDS011;53116;52.020;4.446;2022-08-20T11:03:05;6.97;;;2.10;;
64132;SDS011;53116;52.020;4.446;2022-08-20T11:05:30;7.20;;;1.98;;
64132;SDS011;53116;52.020;4.446;2022-08-20T11:07:55;6.85;;;2.03;;
64132;SDS011;53116;52.020;4.446;2022-08-20T11:10:22;5.55;;;2.00;;
64132;SDS011;53116;52.020;4.446;2022-08-20T11:12:49;9.30;;;2.45;;
64132;SDS011;53116;52.020;4.446;2022-08-20T11:15:14;10.23;;;2.22;;
64132;SDS011;53116;52.020;4.446;2022-08-20T11:17:41;10.25;;;2.00;;
64132;SDS011;53116;52.020;4.446;2022-08-20T11:20:08;6.80;;;1.98;;
64132;SDS011;53116;52.020;4.446;2022-08-20T11:22:35;8.38;;;2.15;;
64132;SDS011;53116;52.020;4.446;2022-08-20T11:25:02;8.52;;;2.17;;
64132;SDS011;53116;52.020;4.446;2022-08-20T11:27:32;8.13;;;2.35;;
64132;SDS011;53116;52.020;4.446;2022-08-20T11:30:00;7.75;;;1.83;;
64132;SDS011;53116;52.020;4.446;2022-08-20T11:32:25;6.78;;;2.10;;
64132;SDS011;53116;52.020;4.446;2022-08-20T11:34:51;7.45;;;2.00;;
64132;SDS011;53116;52.020;4.446;2022-08-20T11:37:17;7.80;;;2.05;;
64132;SDS011;53116;52.020;4.446;2022-08-20T11:39:44;10.82;;;2.20;;
64132;SDS011;53116;52.020;4.446;2022-08-20T11:42:09;8.90;;;1.87;;
64132;SDS011;53116;52.020;4.446;2022-08-20T11:44:35;10.60;;;2.25;;
64132;SDS011;53116;52.020;4.446;2022-08-20T11:47:00;10.63;;;1.90;;
64132;SDS011;53116;52.020;4.446;2022-08-20T11:49:28;7.38;;;1.67;;
64132;SDS011;53116;52.020;4.446;2022-08-20T11:51:54;6.50;;;2.00;;
64132;SDS011;53116;52.020;4.446;2022-08-20T11:54:19;8.20;;;2.50;;
64132;SDS011;53116;52.020;4.446;2022-08-20T11:56:44;7.70;;;2.00;;
64132;SDS011;53116;52.020;4.446;2022-08-20T11:59:10;7.10;;;2.20;;
64132;SDS011;53116;52.020;4.446;2022-08-20T12:01:35;9.63;;;2.30;;
64132;SDS011;53116;52.020;4.446;2022-08-20T12:04:00;9.73;;;2.90;;
64132;SDS011;53116;52.020;4.446;2022-08-20T12:06:26;5.72;;;2.20;;
64132;SDS011;53116;52.020;4.446;2022-08-20T12:08:51;8.05;;;2.22;;
64132;SDS011;53116;52.020;4.446;2022-08-20T12:11:16;8.37;;;2.20;;
64132;SDS011;53116;52.020;4.446;2022-08-20T12:13:42;7.28;;;2.38;;
64132;SDS011;53116;52.020;4.446;2022-08-20T12:16:07;6.03;;;2.27;;
64132;SDS011;53116;52.020;4.446;2022-08-20T12:18:32;7.00;;;2.20;;
64132;SDS011;53116;52.020;4.446;2022-08-20T12:20:57;9.57;;;2.13;;
64132;SDS011;53116;52.020;4.446;2022-08-20T12:23:23;8.23;;;2.45;;
64132;SDS011;53116;52.020;4.446;2022-08-20T12:25:48;8.67;;;2.53;;
64132;SDS011;53116;52.020;4.446;2022-08-20T12:28:14;7.07;;;2.17;;
64132;SDS011;53116;52.020;4.446;2022-08-20T12:30:39;5.57;;;2.00;;
64132;SDS011;53116;52.020;4.446;2022-08-20T12:33:05;9.18;;;2.15;;
64132;SDS011;53116;52.020;4.446;2022-08-20T12:35:30;9.90;;;2.50;;
64132;SDS011;53116;52.020;4.446;2022-08-20T12:37:56;12.18;;;2.45;;
64132;SDS011;53116;52.020;4.446;2022-08-20T12:40:23;10.95;;;2.40;;
64132;SDS011;53116;52.020;4.446;2022-08-20T12:42:49;9.75;;;2.40;;
64132;SDS011;53116;52.020;4.446;2022-08-20T12:45:15;6.80;;;2.13;;
64132;SDS011;53116;52.020;4.446;2022-08-20T12:47:42;9.48;;;2.50;;
64132;SDS011;53116;52.020;4.446;2022-08-20T12:50:17;7.82;;;2.05;;
64132;SDS011;53116;52.020;4.446;2022-08-20T12:52:46;4.95;;;1.98;;
64132;SDS011;53116;52.020;4.446;2022-08-20T12:55:13;7.63;;;2.17;;
64132;SDS011;53116;52.020;4.446;2022-08-20T12:57:47;7.15;;;1.98;;
64132;SDS011;53116;52.020;4.446;2022-08-20T13:00:16;8.02;;;2.15;;
64132;SDS011;53116;52.020;4.446;2022-08-20T13:02:51;4.80;;;1.83;;
64132;SDS011;53116;52.020;4.446;2022-08-20T13:05:17;5.82;;;2.13;;
64132;SDS011;53116;52.020;4.446;2022-08-20T13:07:43;8.02;;;1.90;;
64132;SDS011;53116;52.020;4.446;2022-08-20T13:10:11;7.75;;;2.00;;
64132;SDS011;53116;52.020;4.446;2022-08-20T13:12:39;6.15;;;1.90;;
64132;SDS011;53116;52.020;4.446;2022-08-20T13:15:05;4.88;;;1.75;;
64132;SDS011;53116;52.020;4.446;2022-08-20T13:17:30;6.00;;;1.63;;
64132;SDS011;53116;52.020;4.446;2022-08-20T13:19:56;8.35;;;2.15;;
64132;SDS011;53116;52.020;4.446;2022-08-20T13:22:21;10.47;;;2.00;;
64132;SDS011;53116;52.020;4.446;2022-08-20T13:24:46;6.28;;;2.00;;
64132;SDS011;53116;52.020;4.446;2022-08-20T13:27:14;9.93;;;2.10;;
64132;SDS011;53116;52.020;4.446;2022-08-20T13:29:45;6.20;;;1.85;;
64132;SDS011;53116;52.020;4.446;2022-08-20T13:32:15;8.40;;;2.15;;
64132;SDS011;53116;52.020;4.446;2022-08-20T13:34:41;15.57;;;2.53;;
64132;SDS011;53116;52.020;4.446;2022-08-20T13:37:17;12.73;;;2.63;;
64132;SDS011;53116;52.020;4.446;2022-08-20T13:39:44;18.50;;;2.53;;
64132;SDS011;53116;52.020;4.446;2022-08-20T13:42:10;7.88;;;2.05;;
64132;SDS011;53116;52.020;4.446;2022-08-20T13:44:36;8.52;;;2.22;;
64132;SDS011;53116;52.020;4.446;2022-08-20T13:47:11;7.35;;;2.20;;
64132;SDS011;53116;52.020;4.446;2022-08-20T13:49:43;12.07;;;2.20;;
64132;SDS011;53116;52.020;4.446;2022-08-20T13:52:09;11.80;;;1.90;;
64132;SDS011;53116;52.020;4.446;2022-08-20T13:54:35;11.65;;;2.33;;
64132;SDS011;53116;52.020;4.446;2022-08-20T13:57:04;9.97;;;1.93;;
64132;SDS011;53116;52.020;4.446;2022-08-20T13:59:33;8.25;;;1.83;;
64132;SDS011;53116;52.020;4.446;2022-08-20T14:02:03;8.68;;;2.30;;
64132;SDS011;53116;52.020;4.446;2022-08-20T14:04:28;8.57;;;1.95;;
64132;SDS011;53116;52.020;4.446;2022-08-20T14:06:54;8.50;;;1.75;;
64132;SDS011;53116;52.020;4.446;2022-08-20T14:09:19;8.63;;;2.20;;
64132;SDS011;53116;52.020;4.446;2022-08-20T14:11:45;15.10;;;2.17;;
64132;SDS011;53116;52.020;4.446;2022-08-20T14:14:10;11.67;;;1.93;;
64132;SDS011;53116;52.020;4.446;2022-08-20T14:16:35;7.43;;;1.80;;
64132;SDS011;53116;52.020;4.446;2022-08-20T14:19:01;7.95;;;1.73;;
64132;SDS011;53116;52.020;4.446;2022-08-20T14:21:28;5.25;;;1.85;;
64132;SDS011;53116;52.020;4.446;2022-08-20T14:23:53;7.20;;;2.30;;
64132;SDS011;53116;52.020;4.446;2022-08-20T14:26:18;7.90;;;1.80;;
64132;SDS011;53116;52.020;4.446;2022-08-20T14:28:44;5.37;;;2.00;;
64132;SDS011;53116;52.020;4.446;2022-08-20T14:31:09;12.73;;;2.28;;
64132;SDS011;53116;52.020;4.446;2022-08-20T14:33:34;4.82;;;1.63;;
64132;SDS011;53116;52.020;4.446;2022-08-20T14:36:00;6.93;;;1.85;;
64132;SDS011;53116;52.020;4.446;2022-08-20T14:38:25;6.07;;;1.65;;
64132;SDS011;53116;52.020;4.446;2022-08-20T14:40:50;7.03;;;1.60;;
64132;SDS011;53116;52.020;4.446;2022-08-20T14:43:16;11.87;;;2.10;;
64132;SDS011;53116;52.020;4.446;2022-08-20T14:45:41;8.25;;;2.00;;
64132;SDS011;53116;52.020;4.446;2022-08-20T14:48:07;8.20;;;1.90;;